Latest Weather Observations for Cooma Airport

IDN60901

Issued at 12:11 am EST Wednesday 20 June 2018 (issued every 10 minutes, with the page automatically refreshed every 10 minutes)

About weather observations | Map of Canberra area stations | Latest observations for Canberra area | Other Formats
Station Details ID: 070217 Name: COOMA AIRPORT AWS Lat: -36.29 Lon: 148.97 Height: 930.0 m
Data from the previous 72 hours. | See also: Recent months at Cooma Airport
Date/Time
EST
Temp
°C
App
Temp
°C
Dew
Point
°C
Rel
Hum
%
Delta-T
°C
Wind Press
QNH
hPa
Press
MSL
hPa
Rain since
9am
mm
Dir  Spd
km/h
Gust
km/h
Spd
kts
Gust
kts
20/12:00am 4.5 0.8 4.4 99 0.0 WSW 13 17 7 9 1028.6 1030.1 1.0
 
Date/Time
EST
Temp
°C
App
Temp
°C
Dew
Point
°C
Rel
Hum
%
Delta-T
°C
Wind Press
QNH
hPa
Press
MSL
hPa
Rain since
9am
mm
Dir  Spd
km/h
Gust
km/h
Spd
kts
Gust
kts
19/11:30pm 4.6 1.3 4.5 99 0.0 SW 11 13 6 7 1028.6 1030.1 1.0
19/11:22pm 4.6 1.3 4.5 99 0.0 SW 11 15 6 8 1028.5 1030.0 1.0
19/11:10pm 4.6 1.3 4.5 99 0.0 WSW 11 15 6 8 1028.5 1030.0 0.8
19/11:00pm 4.6 1.3 4.5 99 0.0 WSW 11 13 6 7 1028.5 1030.0 0.8
19/10:30pm 4.6 1.3 4.5 99 0.0 WSW 11 13 6 7 1028.6 1030.1 0.8
19/10:04pm 4.7 1.8 4.6 99 0.0 SW 9 11 5 6 1028.4 1029.9 0.8
19/10:00pm 4.7 2.2 4.6 99 0.0 SW 7 11 4 6 1028.4 1029.9 0.8
19/09:30pm 4.6 3.4 4.5 99 0.0 CALM 0 0 0 0 1028.4 1029.9 0.8
19/09:00pm 4.4 3.1 4.3 99 0.0 CALM 0 0 0 0 1028.3 1029.8 0.8
19/08:50pm 4.3 1.7 4.2 99 0.0 SSE 7 9 4 5 1028.3 1029.8 0.8
19/08:30pm 4.0 0.6 3.9 99 0.0 SSW 11 15 6 8 1028.1 1029.7 0.8
19/08:04pm 3.8 0.0 3.7 99 0.0 SW 13 13 7 7 1028.1 1029.7 0.8
19/08:00pm 3.8 0.3 3.7 99 0.0 SW 11 13 6 7 1028.1 1029.7 0.8
19/07:38pm 4.5 1.2 4.4 99 0.0 SW 11 15 6 8 1028.3 1029.8 0.8
19/07:30pm 4.7 1.0 4.6 99 0.0 SW 13 19 7 10 1028.3 1029.8 0.8
19/07:00pm 5.1 1.9 5.0 99 0.0 SW 11 13 6 7 1028.3 1029.8 0.8
19/06:30pm 5.2 1.2 5.1 99 0.0 SW 15 20 8 11 1027.9 1029.5 0.8
19/06:00pm 5.3 1.7 5.2 99 0.0 SW 13 17 7 9 1027.6 1029.1 0.8
19/05:30pm 5.3 1.4 5.2 99 0.0 WSW 15 17 8 9 1027.2 1028.7 0.8
19/05:00pm 5.4 1.1 5.3 99 0.0 SW 17 20 9 11 1026.9 1028.5 0.8
19/04:39pm 5.3 1.4 5.2 99 0.0 SW 15 20 8 11 1026.7 1028.2 0.8
19/04:30pm 5.2 0.5 5.1 99 0.0 SSW 19 26 10 14 1026.6 1028.1 0.8
19/04:25pm 5.4 0.5 5.3 99 0.0 SSW 20 26 11 14 1026.5 1028.0 0.8
19/04:20pm 5.7 0.9 5.6 99 0.0 SSW 20 24 11 13 1026.5 1028.0 0.8
19/04:00pm 5.9 1.3 5.8 99 0.0 SSW 19 26 10 14 1026.5 1028.0 0.8
19/03:30pm 5.8 0.6 5.7 99 0.0 SSW 22 28 12 15 1026.5 1028.0 0.4
19/03:00pm 6.1 1.4 6.0 99 0.0 SW 20 26 11 14 1026.5 1028.0 0.2
19/02:55pm 6.1 1.6 6.0 99 0.0 SSW 19 26 10 14 1026.4 1027.9 0.2
19/02:50pm 6.3 1.8 6.2 99 0.0 SSW 19 22 10 12 1026.4 1027.9 0.2
19/02:30pm 6.0 1.5 5.9 99 0.0 SW 19 24 10 13 1026.5 1028.0 0.2
19/02:00pm 6.5 1.5 6.4 99 0.0 SW 22 28 12 15 1026.4 1027.9 0.0
19/01:30pm 5.9 1.1 5.8 99 0.0 SW 20 26 11 14 1026.3 1027.8 0.0
19/01:00pm 5.5 -0.1 5.4 99 0.0 SSW 24 30 13 16 1026.4 1027.9 0.0
19/12:56pm 5.6 0.8 5.5 99 0.0 SSW 20 30 11 16 1026.4 1027.9 0.0
19/12:30pm 5.8 -0.1 5.7 99 0.0 SW 26 33 14 18 1026.5 1028.0 0.0
19/12:20pm 6.1 0.2 6.0 99 0.0 SSW 26 35 14 19 1026.4 1027.9 0.0
19/12:00pm 5.4 -0.2 5.3 99 0.0 SW 24 32 13 17 1026.6 1028.1 0.0
19/11:30am 4.9 -0.4 4.8 99 0.0 SW 22 28 12 15 1027.2 1028.7 0.0
19/11:00am 4.5 -1.3 4.4 99 0.0 SW 24 32 13 17 1027.3 1028.8 0.0
19/10:30am 4.6 -1.2 4.3 98 0.1 SW 24 33 13 18 1027.3 1028.8 0.0
19/10:07am 4.5 -1.3 4.2 98 0.1 SW 24 32 13 17 1026.9 1028.5 0.0
19/10:00am 4.4 -1.8 4.1 98 0.1 SW 26 33 14 18 1027.1 1028.6 0.0
19/09:30am 4.3 -3.2 3.4 94 0.4 SW 32 41 17 22 1026.8 1028.3 0.0
19/09:28am 4.1 -3.5 3.1 93 0.4 SW 32 41 17 22 1026.8 1028.3 0.0
19/09:26am 4.2 -3.3 3.2 93 0.4 SW 32 41 17 22 1026.8 1028.3 0.0
19/09:00am 3.9 -2.4 3.8 99 0.0 SW 26 30 14 16 1026.5 1028.0 3.2
19/08:57am 3.8 -2.5 3.7 99 0.0 SW 26 30 14 16 1026.6 1028.1 3.2
19/08:35am 3.5 -2.9 3.4 99 0.0 SW 26 33 14 18 1026.3 1027.8 3.2
19/08:30am 3.4 -3.4 3.3 99 0.0 SW 28 35 15 19 1026.2 1027.7 3.2
19/08:00am 3.1 -3.7 3.0 99 0.0 SW 28 33 15 18 1026.0 1027.4 3.2
19/07:45am 3.0 -3.8 2.9 99 0.0 SSW 28 33 15 18 1025.5 1027.0 3.2
19/07:41am 3.0 -3.5 2.9 99 0.0 SW 26 33 14 18 1025.5 1027.0 3.2
19/07:30am 3.0 -3.5 2.9 99 0.0 SW 26 37 14 20 1025.4 1026.9 3.2
19/07:00am 2.9 -3.2 2.8 99 0.0 SW 24 30 13 16 1025.4 1026.9 3.2
19/06:47am 2.9 -4.0 2.8 99 0.0 SW 28 37 15 20 1025.1 1026.6 3.2
19/06:30am 2.7 -4.2 2.6 99 0.0 SW 28 39 15 21 1024.8 1026.2 3.2
19/06:00am 2.9 -4.3 2.8 99 0.0 SW 30 35 16 19 1024.5 1026.0 3.2
19/05:41am 2.9 -4.0 2.8 99 0.0 SW 28 33 15 18 1024.3 1025.8 3.2
19/05:30am 2.8 -4.1 2.7 99 0.0 SW 28 35 15 19 1024.2 1025.7 3.2
19/05:00am 2.6 -4.3 2.5 99 0.0 SW 28 35 15 19 1024.1 1025.5 3.2
19/04:43am 2.7 -4.2 2.6 99 0.0 SW 28 35 15 19 1024.1 1025.5 3.2
19/04:30am 2.7 -4.6 2.6 99 0.0 SW 30 37 16 20 1023.9 1025.3 3.2
19/04:00am 2.4 -4.5 2.3 99 0.0 SW 28 37 15 20 1023.9 1025.3 3.2
19/03:56am 2.5 -4.8 2.4 99 0.0 SW 30 39 16 21 1024.0 1025.4 3.2
19/03:48am 2.5 -5.2 2.4 99 0.0 SW 32 39 17 21 1024.0 1025.4 3.2
19/03:45am 2.4 -5.5 2.3 99 0.0 SW 33 39 18 21 1024.0 1025.4 3.2
19/03:30am 2.6 -5.6 2.5 99 0.0 SW 35 48 19 26 1023.9 1025.3 3.2
19/03:00am 2.5 -4.4 2.4 99 0.0 SW 28 37 15 20 1023.8 1025.2 3.2
19/02:30am 2.5 -4.8 2.4 99 0.0 SW 30 35 16 19 1023.6 1025.0 3.2
19/02:00am 2.6 -4.3 2.5 99 0.0 SW 28 35 15 19 1023.7 1025.1 3.2
19/01:30am 2.6 -5.1 2.5 99 0.0 SSW 32 41 17 22 1023.4 1024.9 3.2
19/01:16am 2.6 -4.7 2.5 99 0.0 SW 30 37 16 20 1023.3 1024.8 3.2
19/01:11am 2.6 -4.7 2.5 99 0.0 SW 30 37 16 20 1023.3 1024.8 3.2
19/01:00am 2.4 -4.5 2.3 99 0.0 SW 28 37 15 20 1023.3 1024.8 3.2
19/12:58am 2.4 -4.5 2.3 99 0.0 SW 28 35 15 19 1023.3 1024.8 3.2
19/12:56am 2.4 -4.5 2.3 99 0.0 SW 28 35 15 19 1023.3 1024.8 3.2
19/12:30am 2.5 -4.0 2.4 99 0.0 SSW 26 35 14 19 1023.2 1024.7 3.2
19/12:26am 2.5 -4.4 2.4 99 0.0 SSW 28 35 15 19 1023.2 1024.7 3.2
19/12:05am 2.4 -4.9 2.3 99 0.0 SW 30 35 16 19 1023.1 1024.5 3.2
19/12:00am 2.4 -4.5 2.3 99 0.0 SW 28 35 15 19 1022.9 1024.3 3.2
 
Date/Time
EST
Temp
°C
App
Temp
°C
Dew
Point
°C
Rel
Hum
%
Delta-T
°C
Wind Press
QNH
hPa
Press
MSL
hPa
Rain since
9am
mm
Dir  Spd
km/h
Gust
km/h
Spd
kts
Gust
kts
18/11:30pm 2.4 -3.8 2.3 99 0.0 SW 24 37 13 20 1022.9 1024.3 3.2
18/11:00pm 2.2 -3.6 2.1 99 0.0 SW 22 30 12 16 1022.9 1024.3 3.2
18/10:30pm 2.1 -3.2 2.0 99 0.0 SW 19 24 10 13 1023.2 1024.7 3.2
18/10:00pm 1.7 -3.3 1.6 99 0.0 SSW 17 20 9 11 1023.2 1024.7 3.0
18/09:58pm 1.8 -3.1 1.7 99 0.0 SSW 17 20 9 11 1023.4 1024.9 3.0
18/09:32pm 2.4 -3.8 2.3 99 0.0 SSW 24 32 13 17 1023.0 1024.4 2.0
18/09:30pm 2.4 -3.8 2.3 99 0.0 SSW 24 32 13 17 1023.0 1024.4 2.0
18/09:00pm 2.5 -3.3 2.4 99 0.0 SW 22 28 12 15 1022.6 1024.0 1.6
18/08:32pm 2.9 -3.8 1.6 91 0.5 SW 26 35 14 19 1022.6 1024.0 1.4
18/08:30pm 2.9 -3.4 1.7 92 0.5 SW 24 32 13 17 1022.6 1024.0 1.4
18/08:00pm 3.0 -2.9 1.4 89 0.7 SW 22 30 12 16 1022.5 1023.9 1.4
18/07:30pm 3.1 -4.4 1.2 87 0.8 SW 30 41 16 22 1022.0 1023.4 1.4
18/07:00pm 2.9 -4.1 1.7 92 0.5 SW 28 37 15 20 1021.7 1023.1 1.4
18/06:30pm 2.6 -4.9 1.3 91 0.5 SW 30 41 16 22 1021.6 1023.0 1.4
18/06:00pm 3.0 -4.0 1.7 91 0.5 SW 28 39 15 21 1021.6 1023.0 1.4
18/05:30pm 3.4 -3.8 3.0 97 0.2 SW 30 35 16 19 1021.3 1022.6 1.4
18/05:00pm 4.2 -2.5 3.8 97 0.2 SSW 28 37 15 20 1020.8 1022.2 1.2
18/04:30pm 4.7 -2.7 3.8 94 0.4 SSW 32 46 17 25 1020.3 1021.6 1.2
18/04:00pm 5.1 -1.7 5.0 99 0.0 SSW 30 39 16 21 1019.9 1021.3 1.2
18/03:51pm 5.0 -1.9 4.7 98 0.1 SSW 30 39 16 21 1019.8 1021.2 1.2
18/03:30pm 5.1 -3.1 4.8 98 0.1 SSW 37 46 20 25 1019.6 1021.0 1.0
18/03:20pm 5.4 -2.1 4.5 94 0.4 SSW 33 44 18 24 1019.5 1020.8 0.6
18/03:19pm 5.6 -1.8 4.9 95 0.3 SSW 33 44 18 24 1019.5 1020.8 0.6
18/03:06pm 6.2 0.6 5.6 96 0.3 SSW 24 32 13 17 1019.5 1020.8 0.4
18/03:00pm 6.1 0.1 5.5 96 0.3 SSW 26 35 14 19 1019.5 1020.8 0.4
18/02:37pm 6.5 -1.3 5.1 91 0.7 SSW 35 46 19 25 1019.2 1020.5 0.4
18/02:30pm 7.2 -0.6 6.5 95 0.3 SSW 37 46 20 25 1019.1 1020.4 0.4
18/02:23pm 6.4 -0.8 6.0 97 0.2 SSW 33 44 18 24 1019.1 1020.4 0.4
18/02:00pm 6.2 -1.3 6.1 99 0.0 SSW 35 44 19 24 1019.1 1020.4 0.4
18/01:48pm 5.7 -2.0 5.3 97 0.2 SSW 35 46 19 25 1019.1 1020.4 0.2
18/01:34pm 6.4 -2.0 5.5 94 0.4 SSW 39 50 21 27 1018.7 1020.1 0.2
18/01:30pm 6.5 -1.9 5.8 95 0.3 SSW 39 50 21 27 1018.7 1020.1 0.2
18/01:19pm 6.2 -2.3 5.2 93 0.5 SSW 39 50 21 27 1019.0 1020.3 0.2
18/01:00pm 7.1 -1.1 4.8 85 1.1 SSW 37 46 20 25 1019.0 1020.3 0.2
18/12:30pm 6.9 -1.3 4.6 85 1.1 SSW 37 52 20 28 1018.8 1020.2 0.2
18/12:00pm 6.9 -1.3 4.9 87 0.9 SSW 37 48 20 26 1019.0 1020.3 0.2
18/11:30am 5.9 -2.4 4.4 90 0.7 SSW 37 46 20 25 1019.4 1020.7 0.2
18/11:00am 6.1 -1.1 4.9 92 0.6 SSW 32 39 17 21 1019.6 1021.0 0.2
18/10:30am 5.6 -1.5 5.5 99 0.0 SSW 32 41 17 22 1019.6 1021.0 0.2
18/10:00am 5.5 -1.8 5.4 99 0.0 SSW 33 46 18 25 1019.6 1021.0 0.2
18/09:30am 4.6 -2.3 4.5 99 0.0 SW 30 37 16 20 1019.4 1020.7 0.0
18/09:00am 4.6 -1.6 4.5 99 0.0 SW 26 35 14 19 1019.0 1020.3 4.4
18/08:30am 4.3 -1.9 4.2 99 0.0 SW 26 32 14 17 1018.7 1020.1 4.4
18/08:00am 3.9 -2.8 3.8 99 0.0 SW 28 37 15 20 1018.3 1019.6 4.4
18/07:30am 3.2 -2.5 3.1 99 0.0 SW 22 28 12 15 1018.0 1019.3 4.4
18/07:29am 3.2 -2.5 3.1 99 0.0 SW 22 28 12 15 1017.9 1019.2 4.4
18/07:14am 2.9 -3.2 2.8 99 0.0 SW 24 30 13 16 1017.8 1019.1 4.4
18/07:00am 2.8 -4.1 2.7 99 0.0 SW 28 35 15 19 1017.8 1019.1 4.4
18/06:34am 2.9 -4.0 2.8 99 0.0 SW 28 35 15 19 1017.5 1018.8 4.2
18/06:30am 2.9 -4.3 2.8 99 0.0 SW 30 39 16 21 1017.5 1018.8 4.0
18/06:00am 3.0 -3.8 2.9 99 0.0 SW 28 35 15 19 1017.0 1018.3 3.8
18/05:59am 2.9 -4.0 2.8 99 0.0 SW 28 35 15 19 1017.0 1018.3 3.8
18/05:30am 2.8 -5.0 2.7 99 0.0 SW 33 41 18 22 1016.7 1017.9 3.8
18/05:00am 2.4 -3.4 2.3 99 0.0 SW 22 28 12 15 1016.3 1017.6 3.6
18/04:52am 2.3 -3.1 2.2 99 0.0 SW 20 26 11 14 1016.4 1017.7 3.6
18/04:38am 2.1 -3.4 2.0 99 0.0 SW 20 24 11 13 1016.2 1017.5 3.6
18/04:30am 1.9 -3.6 1.8 99 0.0 SW 20 24 11 13 1016.2 1017.5 3.6
18/04:25am 1.7 -3.8 1.6 99 0.0 SW 20 26 11 14 1016.3 1017.6 3.6
18/04:19am 1.6 -4.3 1.5 99 0.0 SW 22 26 12 14 1016.3 1017.6 3.6
18/04:00am 1.7 -4.6 1.6 99 0.0 SW 24 32 13 17 1016.0 1017.3 3.6
18/03:30am 2.4 -4.5 2.3 99 0.0 SW 28 33 15 18 1015.8 1017.0 3.6
18/03:20am 2.4 -4.5 2.3 99 0.0 SW 28 35 15 19 1015.7 1016.9 3.6
18/03:05am 2.5 -4.0 2.4 99 0.0 SW 26 33 14 18 1015.7 1016.9 3.6
18/03:00am 2.5 -4.0 2.4 99 0.0 SW 26 33 14 18 1015.7 1016.9 3.6
18/02:30am 2.6 -4.3 2.5 99 0.0 SW 28 35 15 19 1015.5 1016.7 3.4
18/02:00am 2.5 -3.7 2.4 99 0.0 SW 24 32 13 17 1015.1 1016.4 3.2
18/01:30am 2.2 -3.3 2.1 99 0.0 SW 20 26 11 14 1015.0 1016.3 3.2
18/01:11am 2.1 -3.8 2.0 99 0.0 SW 22 28 12 15 1014.8 1016.0 3.2
18/01:00am 1.8 -5.2 1.7 99 0.0 SW 28 33 15 18 1014.6 1015.8 3.2
18/12:43am 2.1 -4.5 2.0 99 0.0 SW 26 33 14 18 1014.5 1015.7 3.2
18/12:30am 2.2 -4.0 2.1 99 0.0 SW 24 30 13 16 1014.5 1015.7 3.2
18/12:00am 2.0 -3.9 1.9 99 0.0 SW 22 28 12 15 1014.8 1016.0 3.0
 
Date/Time
EST
Temp
°C
App
Temp
°C
Dew
Point
°C
Rel
Hum
%
Delta-T
°C
Wind Press
QNH
hPa
Press
MSL
hPa
Rain since
9am
mm
Dir  Spd
km/h
Gust
km/h
Spd
kts
Gust
kts
17/11:30pm 1.8 -4.9 1.7 99 0.0 SW 26 35 14 19 1014.4 1015.6 3.0
17/11:14pm 1.3 -4.7 1.2 99 0.0 SW 22 28 12 15 1014.4 1015.6 3.0
17/11:00pm 0.7 -5.4 0.6 99 0.0 SW 22 30 12 16 1014.2 1015.5 3.0
17/10:59pm 0.8 -5.3 0.7 99 0.0 SW 22 30 12 16 1014.2 1015.5 3.0
17/10:30pm 0.8 -6.4 0.7 99 0.0 SW 28 35 15 19 1014.2 1015.5 3.0
17/10:24pm 0.8 -6.4 0.7 99 0.0 SW 28 35 15 19 1014.2 1015.5 3.0
17/10:07pm 0.9 -8.0 0.8 99 0.0 SW 37 50 20 27 1014.1 1015.4 2.8
17/10:00pm 1.6 -6.8 1.5 99 0.0 SSW 35 50 19 27 1014.0 1015.2 2.4
17/09:30pm 2.5 -4.1 2.2 98 0.1 SW 26 35 14 19 1013.6 1014.8 2.0
17/09:00pm 2.5 -3.7 2.2 98 0.1 SW 24 30 13 16 1013.2 1014.4 2.0
17/08:44pm 2.5 -2.9 2.4 99 0.0 SW 20 24 11 13 1013.0 1014.2 2.0
17/08:30pm 2.4 -3.0 2.3 99 0.0 SW 20 26 11 14 1012.8 1014.0 1.8
17/08:18pm 2.5 -2.9 2.2 98 0.1 SW 20 24 11 13 1012.7 1013.9 1.8
17/08:00pm 2.6 -2.6 2.2 97 0.2 SW 19 24 10 13 1012.5 1013.7 1.6
17/07:30pm 2.7 -2.5 2.3 97 0.2 SW 19 22 10 12 1012.1 1013.2 1.6
17/07:00pm 2.5 -2.7 2.2 98 0.1 SW 19 24 10 13 1011.8 1013.0 1.6
17/06:55pm 2.5 -2.3 2.4 99 0.0 SW 17 24 9 13 1011.8 1013.0 1.6
17/06:34pm 2.4 -4.3 1.7 95 0.3 SW 26 35 14 19 1011.5 1012.7 1.4
17/06:30pm 2.5 -4.2 1.6 94 0.4 SW 26 35 14 19 1011.4 1012.6 1.2
17/06:00pm 2.7 -2.3 1.2 90 0.6 WSW 17 20 9 11 1010.6 1011.8 0.2
17/05:30pm 2.5 -2.5 1.2 91 0.5 WSW 17 24 9 13 1010.3 1011.4 0.2
17/05:00pm 2.8 -3.5 1.3 90 0.6 WSW 24 33 13 18 1009.9 1011.0 0.2
17/04:30pm 4.8 -3.0 -0.8 67 2.2 SW 30 37 16 20 1009.3 1010.4 0.0
17/04:05pm 5.9 -2.1 -2.0 57 3.1 WSW 30 50 16 27 1008.9 1010.0 0.0
17/04:00pm 5.8 -2.2 -2.5 55 3.2 WSW 30 39 16 21 1008.8 1009.9 0.0
17/03:30pm 6.5 -1.2 -2.6 52 3.5 WSW 28 39 15 21 1008.3 1009.4 0.0
17/03:00pm 7.6 -1.4 -3.0 47 4.1 W 35 44 19 24 1007.8 1008.9 0.0
17/02:30pm 7.8 -0.8 -2.8 47 4.1 W 33 44 18 24 1007.7 1008.8 0.0
17/02:00pm 8.0 -0.4 -2.6 47 4.2 WSW 32 43 17 23 1007.5 1008.5 0.0
17/01:30pm 7.6 -0.4 -2.4 49 3.9 W 30 48 16 26 1007.4 1008.4 0.0
17/01:24pm 7.1 -0.6 -2.9 49 3.9 W 28 48 15 26 1007.5 1008.5 0.0
17/01:00pm 6.7 -0.6 -3.0 50 3.7 W 26 37 14 20 1007.5 1008.5 0.0
17/12:30pm 6.0 -2.4 -2.6 54 3.3 W 32 46 17 25 1007.5 1008.5 0.0
17/12:00pm 6.6 -1.9 -2.0 54 3.4 W 33 44 18 24 1007.6 1008.6 0.0
17/11:30am 7.1 -0.1 -1.8 53 3.5 WNW 26 37 14 20 1007.7 1008.8 0.0
17/11:00am 7.0 0.1 -2.4 51 3.7 W 24 39 13 21 1008.0 1009.1 0.0
17/10:30am 6.0 -0.1 -2.3 55 3.2 WNW 20 33 11 18 1008.1 1009.2 0.0
17/10:00am 6.6 -0.2 -1.8 55 3.3 W 24 39 13 21 1008.2 1009.3 0.0
17/09:30am 5.8 -0.7 -2.5 55 3.2 WNW 22 35 12 19 1008.0 1009.1 0.0
17/09:00am 5.2 -0.7 -2.1 59 2.8 W 19 28 10 15 1007.9 1009.0 0.0
17/08:30am 3.8 -2.4 -2.8 62 2.5 WNW 20 32 11 17 1007.7 1008.8 0.0
17/08:00am 3.6 -1.7 -3.4 60 2.6 WNW 15 26 8 14 1007.2 1008.3 0.0
17/07:30am 2.9 -4.1 -3.2 64 2.2 WNW 24 39 13 21 1007.0 1008.1 0.0
17/07:00am 2.6 -4.0 -3.3 65 2.1 WNW 22 33 12 18 1007.0 1008.1 0.0
17/06:30am 2.6 -4.8 -3.5 64 2.2 WNW 26 37 14 20 1007.0 1008.1 0.0
17/06:00am 2.6 -4.4 -3.3 65 2.1 W 24 41 13 22 1007.1 1008.2 0.0
17/05:30am 1.7 -4.0 -3.8 67 2.0 W 17 28 9 15 1007.4 1008.4 0.0
17/05:00am 1.7 -4.4 -3.8 67 2.1 WNW 19 28 10 15 1007.4 1008.4 0.0
17/04:30am 2.1 -5.3 -3.6 66 2.0 WNW 26 41 14 22 1007.5 1008.5 0.0
17/04:00am 1.7 -4.3 -3.4 69 1.9 WNW 19 30 10 16 1007.4 1008.4 0.0
17/03:30am 1.4 -2.8 -3.5 70 1.8 W 9 13 5 7 1007.9 1009.0 0.0
17/03:00am 1.3 -4.0 -3.6 70 1.8 WNW 15 24 8 13 1008.0 1009.1 0.0
17/02:30am 2.0 -5.0 -3.5 67 2.0 WNW 24 39 13 21 1007.9 1009.0 0.0
17/02:00am 1.9 -4.2 -3.6 67 2.1 WNW 19 28 10 15 1008.0 1009.1 0.0
17/01:45am 2.0 -3.3 -3.5 67 2.0 NW 15 37 8 20 1007.9 1009.0 0.0
17/01:30am 1.5 -2.3 -3.7 68 1.9 WNW 7 15 4 8 1008.1 1009.2 0.0
17/01:00am 1.5 -3.0 -3.6 69 1.9 NW 11 15 6 8 1008.4 1009.5 0.0
17/12:30am 0.7 -2.6 -4.3 69 1.8 W 4 9 2 5 1008.9 1010.0 0.0

Latest Capital City Observations: Canberra | Sydney | Melbourne | Brisbane | Adelaide | Perth | Hobart | Darwin

Other Formats:

Comma delimited format used in spreadsheet applications
http://www.bom.gov.au/fwo/IDN60903/IDN60903.94921.axf

JavaScript Object Notation format (JSON) in row-major order
http://www.bom.gov.au/fwo/IDN60903/IDN60903.94921.json